Vivien A — TCYC4 — position and weather

sailwx.info

Track history (hours):
 
Tides and Currents Weather Stations Pressure Air Temp Water Temp Dewpoint Dewpoint Depression Visibility Wind Speed Wind Dir Waves Ship Positions

Vivien A

Last reported at 2016-Jul-27 11:13 UTC. Time now 2016-Jul-27 22:59 UTC.
Position N 32°42' W 009°45'.

Length 210 m; draft 7.8 m.

Type: Ship (hazmat cat A). MMSI: 271040635.

Date/timePositionNaut miles runAvg speedWind from/ knotsBaromVisibWave heightAir tempDewpointWater temp
2016-Jul-27 11:13N 32°42' W 009°45'2815.2
2016-Jul-27 09:21N 32°20' W 010°07'5714.9
2016-Jul-27 05:33N 31°36' W 010°48'1514.7
2016-Jul-27 04:33N 31°23' W 010°58'1514.9
2016-Jul-27 03:33N 31°11' W 011°08'1515.0
2016-Jul-27 02:33N 30°59' W 011°17'1514.9
2016-Jul-27 01:33N 30°46' W 011°28'1514.6
2016-Jul-27 00:33N 30°35' W 011°38'1514.5
2016-Jul-26 23:32N 30°23' W 011°48'1514.8
2016-Jul-26 22:33N 30°12' W 011°59'1615.5
2016-Jul-26 21:33N 29°60' W 012°10'1615.8
2016-Jul-26 20:33N 29°48' W 012°22'3515.7
2016-Jul-26 18:21N 29°21' W 012°46'1615.5
2016-Jul-26 17:19N 29°08' W 012°58'4115.0
2016-Jul-26 14:33N 28°35' W 013°27'2014.8
2016-Jul-26 13:15N 28°18' W 013°37'1014.7
2016-Jul-26 12:33N 28°09' W 013°41'1614.3
2016-Jul-26 11:28N 27°55' W 013°49'1314.3
2016-Jul-26 10:33N 27°45' W 013°59'1514.9
2016-Jul-26 09:33N 27°33' W 014°10'1514.8
2016-Jul-26 08:33N 27°22' W 014°20'6415.2
2016-Jul-26 04:22N 26°32' W 015°05'1214.9
2016-Jul-26 03:33N 26°23' W 015°14'1614.8
2016-Jul-26 02:29N 26°11' W 015°25'1415.0
2016-Jul-26 01:33N 25°60' W 015°34'1514.7
2016-Jul-26 00:33N 25°48' W 015°44'  
2016-Jul-20 18:14N 05°14' W 003°58'4 1.9
2016-Jul-20 16:13N 05°16' W 004°01'0 0.0
2016-Jul-20 14:19N 05°16' W 004°01'0 0.0
2016-Jul-20 07:19N 05°16' W 004°01'0 0.0
2016-Jul-20 02:22N 05°16' W 004°01'1 0.8
2016-Jul-20 01:33N 05°16' W 004°01'6 5.5
2016-Jul-20 00:28N 05°10' W 003°59'6 0.1
2016-Jul-18 07:28N 05°12' W 004°05'  
Track history (hours):
 
Tides and Currents Weather Stations Pressure Air Temp Water Temp Dewpoint Dewpoint Depression Visibility Wind Speed Wind Dir Waves Ship Positions

Vivien A

Last reported at 2016-Jul-27 11:13 UTC. Time now 2016-Jul-27 22:59 UTC.
Position N 32°42' W 009°45'.

Length 210 m; draft 7.8 m.

Type: Ship (hazmat cat A). MMSI: 271040635.

Date/timePositionNaut miles runAvg speedWind from/ knotsBaromVisibWave heightAir tempDewpointWater temp
2016-Jul-27 11:13N 32°42' W 009°45'2815.2
2016-Jul-27 09:21N 32°20' W 010°07'5714.9
2016-Jul-27 05:33N 31°36' W 010°48'1514.7
2016-Jul-27 04:33N 31°23' W 010°58'1514.9
2016-Jul-27 03:33N 31°11' W 011°08'1515.0
2016-Jul-27 02:33N 30°59' W 011°17'1514.9
2016-Jul-27 01:33N 30°46' W 011°28'1514.6
2016-Jul-27 00:33N 30°35' W 011°38'1514.5
2016-Jul-26 23:32N 30°23' W 011°48'1514.8
2016-Jul-26 22:33N 30°12' W 011°59'1615.5
2016-Jul-26 21:33N 29°60' W 012°10'1615.8
2016-Jul-26 20:33N 29°48' W 012°22'3515.7
2016-Jul-26 18:21N 29°21' W 012°46'1615.5
2016-Jul-26 17:19N 29°08' W 012°58'4115.0
2016-Jul-26 14:33N 28°35' W 013°27'2014.8
2016-Jul-26 13:15N 28°18' W 013°37'1014.7
2016-Jul-26 12:33N 28°09' W 013°41'1614.3
2016-Jul-26 11:28N 27°55' W 013°49'1314.3
2016-Jul-26 10:33N 27°45' W 013°59'1514.9
2016-Jul-26 09:33N 27°33' W 014°10'1514.8
2016-Jul-26 08:33N 27°22' W 014°20'6415.2
2016-Jul-26 04:22N 26°32' W 015°05'1214.9
2016-Jul-26 03:33N 26°23' W 015°14'1614.8
2016-Jul-26 02:29N 26°11' W 015°25'1415.0
2016-Jul-26 01:33N 25°60' W 015°34'1514.7
2016-Jul-26 00:33N 25°48' W 015°44'  
2016-Jul-20 18:14N 05°14' W 003°58'4 1.9
2016-Jul-20 16:13N 05°16' W 004°01'0 0.0
2016-Jul-20 14:19N 05°16' W 004°01'0 0.0
2016-Jul-20 07:19N 05°16' W 004°01'0 0.0
2016-Jul-20 02:22N 05°16' W 004°01'1 0.8
2016-Jul-20 01:33N 05°16' W 004°01'6 5.5
2016-Jul-20 00:28N 05°10' W 003°59'6 0.1
2016-Jul-18 07:28N 05°12' W 004°05'  

Dump ship's entire track history